Pineville, MO (64856)

9:45 PM CDT on August 29, 2015 (GMT -0500)
Wentworth Division | | Change Station
CLOSE
Current Station
Personal Weather Station
Location: Bella Vista, AR
Elevation: 1247 ft
Nearby Weather Stations

Elev 1247 ft 36.45 °N, 94.25 °W | Updated 8 seconds ago

Overcast
Overcast
76.3 °F
Feels Like 77 °F
N
0.0
Wind Variable Wind from WSW
Gusts 0.0 mph

Today
High -- | Low -- °F
--% Chance of Precip.
Yesterday
High -- | Low -- °F
Precip. -- in
6:46 AM 7:50 PM
Full, 100% visible
Pressure 30.02 in
Visibility 10.0 miles
Clouds Mostly Cloudy 4100 ft
Mostly Cloudy 5000 ft
Overcast 6500 ft
Heat Index 77 °F
Dew Point 73 °F
Humidity 89%
Rainfall 0.00 in
Snow Depth Not available.
UV 0.0 out of 12
Pollen 9.60 out of 12
Air Quality Not available.
Flu Activity Not available.
METAR KVBT 300235Z AUTO 00000KT 10SM BKN041 BKN050 OVC065 23/20 A3002 RMK AO1 TSB0156E13
Pressure 30.02 in
Visibility 10.0 miles
Clouds Mostly Cloudy 4100 ft
Mostly Cloudy 5000 ft
Overcast 6500 ft
Heat Index 77 °F
Dew Point 73 °F
Humidity 89%
Rainfall 0.00 in
Snow Depth Not available.
UV 0.0 out of 12
Pollen 9.60 out of 12
Air Quality Not available.
Flu Activity Not available.
METAR KVBT 300235Z AUTO 00000KT 10SM BKN041 BKN050 OVC065 23/20 A3002 RMK AO1 TSB0156E13

10-Day Weather Forecast

×

Almanac

Astronomy

Aug. 29, 2015 Rise Set
Actual Time
Civil Twilight
Nautical Twilight
Astronomical Twilight
Moon
Length of Visible Light
Length of Day
Tomorrow will be .
, % of the Moon is Illuminated

Today's Extremes

State Highs State Lows

Community

WunderPhotos

Upload Photos

1,850,855 photos uploaded!

WunderBlogs® & News

Nearby

Air Quality

  Air Quality AQ Index Pollutant
Not available.

Snow Depth

Station Depth Elevation

Earthquake Activity

City Distance Mag. Time & Date
Minimum magnitude displayed is 2.5.

Coastal Water Temperatures

Place Temperature

Stations

Nearby Weather Stations

Station Location Temp. Windchill Dew Point Humidity Wind Precip. Elev Updated Type